Palisade, South Dakota
Current Conditions -  °F | °C
As of 5:56 PM on Sunday 23 Nov 2014 (Local Time) from KFSD Reporting Station
Overcast Overcast  
Wind Chill: 24°   Ceiling: 17000
Heat Index: 34°   Visibility: 10mi
Dew Point: 26°   Wind: 15mph
Humidity: 73%   Direction: 320°NW
Pressure: 29.53"   Gusts: NA
Location:  43.7606°N, 96.5516°W
Report Text: KFSD 232356Z 32013KT 10SM FEW043 BKN170 OVC250 01/M03 A2953 RMK AO2 SLP012 T00111033 10067 20011 51010
Loading
Personal Weather Stations






























Interactive Weather Map New forecast layout! Learn more

10-Day Weather Forecast

Advertisements
Track Severe Weather on mobile